createdAt,value
2018-04-17T00:01:56.517Z,13.42
2018-04-17T00:04:24.122Z,13.34
2018-04-17T00:06:51.784Z,13.25
2018-04-17T00:09:19.415Z,13.38
2018-04-17T00:11:47.120Z,13.39
2018-04-17T00:14:14.732Z,13.34
2018-04-17T00:16:42.395Z,13.23
2018-04-17T00:19:10.059Z,13.21
2018-04-17T00:21:37.792Z,13.22
2018-04-17T00:24:05.439Z,13.16
2018-04-17T00:26:33.079Z,12.96
2018-04-17T00:29:00.739Z,13.18
2018-04-17T00:31:28.386Z,13.24
2018-04-17T00:33:56.020Z,13.18
2018-04-17T00:36:23.735Z,13.13
2018-04-17T00:38:51.351Z,13.00
2018-04-17T00:41:19.068Z,13.03
2018-04-17T00:43:46.666Z,13.05
2018-04-17T00:46:14.331Z,13.00
2018-04-17T00:48:41.968Z,13.02
2018-04-17T00:51:09.663Z,13.00
2018-04-17T00:53:49.219Z,13.05
2018-04-17T00:56:16.880Z,12.92
2018-04-17T00:58:44.527Z,13.07
2018-04-17T01:01:12.207Z,12.79
2018-04-17T01:03:39.822Z,12.94
2018-04-17T01:06:07.446Z,12.85
2018-04-17T01:08:35.113Z,12.77
2018-04-17T01:11:02.736Z,12.60
2018-04-17T01:13:30.396Z,12.65
2018-04-17T01:15:58.007Z,12.72
2018-04-17T01:18:25.665Z,12.66
2018-04-17T01:20:53.295Z,12.60
2018-04-17T01:23:20.949Z,12.77
2018-04-17T01:25:48.578Z,12.80
2018-04-17T01:28:16.257Z,12.75
2018-04-17T01:30:43.883Z,12.63
2018-04-17T01:33:11.529Z,12.59
2018-04-17T01:35:39.186Z,12.59
2018-04-17T01:38:06.837Z,12.28
2018-04-17T01:40:34.459Z,12.42
2018-04-17T01:43:02.119Z,12.42
2018-04-17T01:45:29.741Z,12.41
2018-04-17T01:47:57.407Z,12.46
2018-04-17T01:50:25.020Z,12.42
2018-04-17T01:52:52.671Z,12.35
2018-04-17T01:55:20.321Z,12.17
2018-04-17T01:57:47.971Z,12.14
2018-04-17T02:00:15.592Z,12.16
2018-04-17T02:02:43.269Z,12.19
2018-04-17T02:05:10.904Z,12.24
2018-04-17T02:07:38.548Z,12.21
2018-04-17T02:10:06.197Z,12.14
2018-04-17T02:12:33.839Z,12.13
2018-04-17T02:15:01.479Z,12.15
2018-04-17T02:17:29.135Z,11.92
2018-04-17T02:19:56.774Z,11.88
2018-04-17T02:22:24.421Z,11.85
2018-04-17T02:24:52.048Z,11.72
2018-04-17T02:27:19.703Z,11.75
2018-04-17T02:29:47.322Z,11.54
2018-04-17T02:32:14.985Z,11.52
2018-04-17T02:34:42.616Z,11.61
2018-04-17T02:37:10.290Z,11.65
2018-04-17T02:39:37.905Z,11.72
2018-04-17T02:42:05.565Z,11.73
2018-04-17T02:44:33.197Z,11.73
2018-04-17T02:47:00.931Z,11.72
2018-04-17T02:49:28.562Z,11.58
2018-04-17T02:51:56.217Z,11.51
2018-04-17T02:54:23.851Z,11.56
2018-04-17T02:56:51.559Z,11.44
2018-04-17T02:59:19.216Z,11.44
2018-04-17T03:01:46.873Z,11.47
2018-04-17T03:04:14.500Z,11.43
2018-04-17T03:06:42.171Z,11.42
2018-04-17T03:09:09.780Z,11.46
2018-04-17T03:11:37.390Z,11.48
2018-04-17T03:14:05.055Z,11.37
2018-04-17T03:16:32.667Z,11.37
2018-04-17T03:19:00.359Z,11.01
2018-04-17T03:21:27.992Z,11.17
2018-04-17T03:23:55.674Z,11.18
2018-04-17T03:26:23.291Z,11.14
2018-04-17T03:28:50.976Z,11.20
2018-04-17T03:31:18.590Z,11.16
2018-04-17T03:33:46.304Z,11.11
2018-04-17T03:36:13.915Z,11.13
2018-04-17T03:38:41.572Z,11.12
2018-04-17T03:41:09.191Z,10.99
2018-04-17T03:43:36.838Z,11.09
2018-04-17T03:46:04.509Z,10.94
2018-04-17T03:48:32.178Z,10.84
2018-04-17T03:50:59.798Z,10.93
2018-04-17T03:53:27.518Z,10.86
2018-04-17T03:55:55.118Z,10.89
2018-04-17T03:58:22.801Z,10.86
2018-04-17T04:00:50.408Z,10.88
2018-04-17T04:03:18.069Z,10.94
2018-04-17T04:05:45.688Z,10.86
2018-04-17T04:08:13.356Z,10.76
2018-04-17T04:10:40.978Z,10.72
2018-04-17T04:13:08.638Z,10.71
2018-04-17T04:15:36.269Z,10.57
2018-04-17T04:18:15.679Z,10.69
2018-04-17T04:20:54.959Z,10.68
2018-04-17T04:23:34.506Z,10.69
2018-04-17T04:29:08.620Z,10.55
2018-04-17T04:31:36.287Z,10.46
2018-04-17T04:34:03.961Z,10.53
2018-04-17T04:36:31.564Z,10.57
2018-04-17T04:38:59.228Z,10.55
2018-04-17T04:41:26.847Z,10.17
2018-04-17T04:43:54.651Z,10.39
2018-04-17T04:46:22.259Z,10.32
2018-04-17T04:48:49.918Z,10.16
2018-04-17T04:51:17.651Z,10.32
2018-04-17T04:53:45.301Z,10.50
2018-04-17T04:56:12.922Z,10.50
2018-04-17T04:58:40.596Z,10.66
2018-04-17T05:01:08.227Z,10.74
2018-04-17T05:03:35.905Z,10.81
2018-04-17T05:06:03.517Z,10.92
2018-04-17T05:08:31.176Z,10.84
2018-04-17T05:10:58.803Z,10.72
2018-04-17T05:13:26.479Z,11.10
2018-04-17T05:15:54.120Z,11.32
2018-04-17T05:18:21.809Z,11.39
2018-04-17T05:20:49.443Z,11.36
2018-04-17T05:23:17.112Z,11.58
2018-04-17T05:25:44.755Z,11.59
2018-04-17T05:28:12.411Z,11.42
2018-04-17T05:30:40.019Z,11.37
2018-04-17T05:33:07.669Z,11.84
2018-04-17T05:35:35.286Z,12.05
2018-04-17T05:38:02.959Z,11.97
2018-04-17T05:40:30.639Z,11.90
2018-04-17T05:42:58.293Z,12.15
2018-04-17T05:45:25.928Z,12.42
2018-04-17T05:47:53.605Z,12.75
2018-04-17T05:50:21.215Z,13.06
2018-04-17T05:52:48.897Z,13.06
2018-04-17T05:55:16.510Z,13.19
2018-04-17T05:57:44.171Z,13.53
2018-04-17T06:00:11.784Z,13.67
2018-04-17T06:02:39.411Z,13.80
2018-04-17T06:05:07.135Z,14.05
2018-04-17T06:07:34.739Z,14.44
2018-04-17T06:10:02.406Z,14.59
2018-04-17T06:12:30.035Z,14.74
2018-04-17T06:14:57.690Z,14.80
2018-04-17T06:17:25.329Z,15.18
2018-04-17T06:19:53.001Z,15.35
2018-04-17T06:22:20.611Z,15.54
2018-04-17T06:24:48.328Z,15.51
2018-04-17T06:27:16.028Z,15.92
2018-04-17T06:29:43.703Z,16.35
2018-04-17T06:32:11.310Z,16.50
2018-04-17T06:34:38.959Z,16.91
2018-04-17T06:37:06.643Z,16.32
2018-04-17T06:39:34.315Z,16.43
2018-04-17T06:42:02.001Z,16.00
2018-04-17T06:44:29.650Z,16.91
2018-04-17T06:46:57.280Z,16.83
2018-04-17T06:49:25.003Z,16.98
2018-04-17T06:51:52.631Z,17.28
2018-04-17T06:54:20.294Z,17.17
2018-04-17T06:56:47.908Z,16.63
2018-04-17T06:59:15.569Z,16.53
2018-04-17T07:01:43.190Z,15.78
2018-04-17T07:04:10.860Z,16.89
2018-04-17T07:06:38.478Z,16.97
2018-04-17T07:09:07.067Z,17.65
2018-04-17T07:11:34.724Z,18.08
2018-04-17T07:14:02.388Z,17.60
2018-04-17T07:16:29.996Z,18.55
2018-04-17T07:18:57.659Z,18.64
2018-04-17T07:21:25.288Z,18.77
2018-04-17T07:23:52.954Z,19.22
2018-04-17T07:26:20.569Z,20.38
2018-04-17T07:28:48.236Z,20.74
2018-04-17T07:31:15.853Z,20.88
2018-04-17T07:33:43.510Z,21.15
2018-04-17T07:36:11.122Z,22.25
2018-04-17T07:38:38.789Z,23.13
2018-04-17T07:41:06.467Z,22.66
2018-04-17T07:43:34.122Z,23.39
2018-04-17T07:46:01.751Z,24.02
2018-04-17T07:48:41.343Z,22.45
2018-04-17T07:51:08.948Z,23.86
2018-04-17T07:53:36.611Z,23.59
2018-04-17T07:56:04.219Z,25.32
2018-04-17T07:58:31.951Z,25.53
2018-04-17T08:00:59.572Z,25.65
2018-04-17T08:03:27.227Z,25.82
2018-04-17T08:05:54.842Z,24.28
2018-04-17T08:08:22.467Z,23.42
2018-04-17T08:10:50.114Z,24.80
2018-04-17T08:13:17.753Z,23.93
2018-04-17T08:15:45.404Z,26.28
2018-04-17T08:18:13.023Z,25.39
2018-04-17T08:20:40.670Z,25.30
2018-04-17T08:23:08.308Z,27.57
2018-04-17T08:25:35.959Z,25.87
2018-04-17T08:28:03.566Z,25.89
2018-04-17T08:30:31.223Z,26.04
2018-04-17T08:32:58.845Z,24.87
2018-04-17T08:35:26.494Z,26.76
2018-04-17T08:37:54.102Z,27.48
2018-04-17T08:40:21.758Z,28.56
2018-04-17T08:42:49.392Z,28.34
2018-04-17T08:45:17.049Z,27.91
2018-04-17T08:47:44.659Z,27.82
2018-04-17T08:50:12.302Z,27.29
2018-04-17T08:52:39.925Z,27.96
2018-04-17T08:55:07.611Z,25.61
2018-04-17T08:57:35.235Z,26.35
2018-04-17T09:00:02.903Z,26.97
2018-04-17T09:02:30.508Z,25.64
2018-04-17T09:04:58.171Z,26.71
2018-04-17T09:07:25.801Z,26.71
2018-04-17T09:09:53.444Z,25.95
2018-04-17T09:12:21.121Z,25.83
2018-04-17T09:14:48.766Z,24.36
2018-04-17T09:17:16.380Z,23.50
2018-04-17T09:19:44.040Z,23.36
2018-04-17T09:22:11.652Z,24.02
2018-04-17T09:24:39.298Z,24.67
2018-04-17T09:27:06.935Z,24.96
2018-04-17T09:29:34.591Z,24.76
2018-04-17T09:32:02.237Z,24.86
2018-04-17T09:34:29.906Z,24.82
2018-04-17T09:36:57.572Z,24.30
2018-04-17T09:39:25.269Z,24.14
2018-04-17T09:41:52.910Z,23.59
2018-04-17T09:44:20.582Z,24.25
2018-04-17T09:46:48.207Z,23.24
2018-04-17T09:49:15.864Z,23.50
2018-04-17T09:51:43.482Z,24.00
2018-04-17T09:54:11.140Z,24.55
2018-04-17T09:56:38.767Z,24.54
2018-04-17T09:59:06.439Z,24.57
2018-04-17T10:01:34.051Z,24.17
2018-04-17T10:04:01.701Z,24.15
2018-04-17T10:06:29.306Z,23.70
2018-04-17T10:08:57.008Z,24.08
2018-04-17T10:11:24.644Z,24.44
2018-04-17T10:13:52.252Z,25.23
2018-04-17T10:16:19.914Z,24.77
2018-04-17T10:18:47.542Z,23.96
2018-04-17T10:21:15.182Z,24.28
2018-04-17T10:23:42.803Z,24.51
2018-04-17T10:26:10.462Z,25.26
2018-04-17T10:28:38.122Z,25.10
2018-04-17T10:31:05.783Z,26.03
2018-04-17T10:33:33.401Z,26.34
2018-04-17T10:36:01.059Z,26.25
2018-04-17T10:38:28.698Z,25.34
2018-04-17T10:40:56.369Z,25.45
2018-04-17T10:43:23.979Z,24.27
2018-04-17T10:45:51.628Z,24.03
2018-04-17T10:48:19.275Z,24.40
2018-04-17T10:50:46.951Z,24.67
2018-04-17T10:53:14.561Z,24.59
2018-04-17T10:55:42.246Z,24.77
2018-04-17T10:58:09.930Z,25.25
2018-04-17T11:00:37.609Z,24.80
2018-04-17T11:03:05.245Z,24.58
2018-04-17T11:05:32.894Z,24.79
2018-04-17T11:08:00.516Z,25.55
2018-04-17T11:10:28.237Z,26.12
2018-04-17T11:12:55.873Z,26.65
2018-04-17T11:15:23.554Z,25.66
2018-04-17T11:17:51.186Z,25.46
2018-04-17T11:20:18.831Z,26.53
2018-04-17T11:22:46.450Z,26.32
2018-04-17T11:25:14.159Z,27.02
2018-04-17T11:27:41.810Z,26.77
2018-04-17T11:30:09.501Z,27.35
2018-04-17T11:32:37.144Z,27.37
2018-04-17T11:35:04.799Z,27.48
2018-04-17T11:37:32.433Z,26.80
2018-04-17T11:40:00.083Z,26.35
2018-04-17T11:42:27.707Z,27.03
2018-04-17T11:44:55.380Z,27.31
2018-04-17T11:47:23.002Z,27.39
2018-04-17T11:49:50.642Z,27.76
2018-04-17T11:52:18.268Z,28.33
2018-04-17T11:54:45.911Z,28.48
2018-04-17T11:57:13.548Z,28.12
2018-04-17T11:59:41.240Z,26.97
2018-04-17T12:02:08.871Z,28.04
2018-04-17T12:04:36.538Z,28.47
2018-04-17T12:07:04.197Z,28.72
2018-04-17T12:09:31.838Z,29.30
2018-04-17T12:11:59.451Z,29.47
2018-04-17T12:14:27.115Z,29.76
2018-04-17T12:16:54.723Z,29.41
2018-04-17T12:19:22.343Z,27.56
2018-04-17T12:21:49.999Z,26.55
2018-04-17T12:24:17.637Z,27.38
2018-04-17T12:26:45.291Z,27.00
2018-04-17T12:29:12.912Z,27.74
2018-04-17T12:31:40.599Z,27.52
2018-04-17T12:34:08.221Z,27.41
2018-04-17T12:36:35.877Z,27.85
2018-04-17T12:39:03.603Z,27.57
2018-04-17T12:41:31.293Z,27.48
2018-04-17T12:43:58.912Z,26.86
2018-04-17T12:46:26.567Z,26.16
2018-04-17T12:48:54.208Z,26.80
2018-04-17T12:51:21.893Z,26.41
2018-04-17T12:53:49.516Z,26.82
2018-04-17T12:56:17.192Z,25.66
2018-04-17T12:58:44.838Z,27.05
2018-04-17T13:01:12.520Z,27.46
2018-04-17T13:03:40.133Z,27.62
2018-04-17T13:06:07.788Z,27.37
2018-04-17T13:08:35.407Z,27.19
2018-04-17T13:11:03.067Z,27.08
2018-04-17T13:13:30.701Z,27.07
2018-04-17T13:15:58.361Z,27.76
2018-04-17T13:18:25.966Z,28.13
2018-04-17T13:20:53.628Z,27.66
2018-04-17T13:23:21.243Z,27.86
2018-04-17T13:25:48.891Z,28.30
2018-04-17T13:28:16.506Z,28.90
2018-04-17T13:30:44.170Z,28.78
2018-04-17T13:33:11.790Z,28.27
2018-04-17T13:35:39.440Z,27.90
2018-04-17T13:38:07.077Z,28.27
2018-04-17T13:40:34.734Z,27.39
2018-04-17T13:43:02.355Z,26.78
2018-04-17T13:45:30.010Z,27.48
2018-04-17T13:47:57.635Z,29.23
2018-04-17T13:50:25.293Z,29.46
2018-04-17T13:52:52.942Z,29.69
2018-04-17T13:55:20.618Z,29.34
2018-04-17T13:57:48.239Z,29.32
2018-04-17T14:00:15.919Z,28.02
2018-04-17T14:02:43.582Z,27.44
2018-04-17T14:05:11.239Z,26.13
2018-04-17T14:07:38.862Z,26.37
2018-04-17T14:10:06.527Z,26.27
2018-04-17T14:12:34.161Z,27.92
2018-04-17T14:15:01.855Z,27.56
2018-04-17T14:17:29.514Z,28.15
2018-04-17T14:19:57.189Z,27.77
2018-04-17T14:22:24.806Z,27.40
2018-04-17T14:24:52.426Z,27.34
2018-04-17T14:27:20.102Z,27.69
2018-04-17T14:29:47.720Z,28.41
2018-04-17T14:32:15.370Z,27.96
2018-04-17T14:34:42.981Z,28.00
2018-04-17T14:37:10.649Z,28.02
2018-04-17T14:39:38.284Z,27.64
2018-04-17T14:42:05.986Z,28.03
2018-04-17T14:44:33.611Z,27.95
2018-04-17T14:47:01.257Z,28.33
2018-04-17T14:49:28.890Z,28.46
2018-04-17T14:51:56.551Z,29.11
2018-04-17T14:54:24.191Z,28.88
2018-04-17T14:56:51.866Z,27.87
2018-04-17T14:59:19.492Z,28.35
2018-04-17T15:01:47.154Z,27.53
2018-04-17T15:04:14.758Z,27.36
2018-04-17T15:06:42.403Z,26.62
2018-04-17T15:09:10.809Z,26.16
2018-04-17T15:11:38.471Z,26.81
2018-04-17T15:14:06.087Z,26.24
2018-04-17T15:16:33.771Z,27.39
2018-04-17T15:19:01.391Z,27.49
2018-04-17T15:21:29.046Z,27.00
2018-04-17T15:23:56.711Z,26.45
2018-04-17T15:26:24.363Z,26.56
2018-04-17T15:28:51.975Z,27.29
2018-04-17T15:31:19.637Z,26.66
2018-04-17T15:33:47.270Z,27.87
2018-04-17T15:36:14.930Z,27.98
2018-04-17T15:38:42.560Z,28.04
2018-04-17T15:41:10.284Z,27.42
2018-04-17T15:43:37.908Z,27.19
2018-04-17T15:46:05.562Z,26.79
2018-04-17T15:48:33.178Z,26.64
2018-04-17T15:51:00.852Z,26.28
2018-04-17T15:53:28.512Z,26.21
2018-04-17T15:55:56.167Z,25.94
2018-04-17T15:58:23.779Z,26.10
2018-04-17T16:00:51.471Z,25.92
2018-04-17T16:03:19.085Z,25.69
2018-04-17T16:05:46.747Z,25.85
2018-04-17T16:08:14.355Z,25.79
2018-04-17T16:10:42.013Z,25.48
2018-04-17T16:13:09.663Z,25.49
2018-04-17T16:15:37.329Z,25.59
2018-04-17T16:18:04.948Z,25.24
2018-04-17T16:20:32.595Z,25.19
2018-04-17T16:23:00.234Z,25.24
2018-04-17T16:25:27.888Z,25.01
2018-04-17T16:27:55.502Z,24.87
2018-04-17T16:30:23.183Z,24.48
2018-04-17T16:32:50.847Z,24.00
2018-04-17T16:35:18.477Z,24.04
2018-04-17T16:37:46.136Z,24.07
2018-04-17T16:40:13.768Z,23.85
2018-04-17T16:42:41.479Z,23.69
2018-04-17T16:45:09.191Z,23.67
2018-04-17T16:47:36.851Z,23.68
2018-04-17T16:50:04.477Z,23.73
2018-04-17T16:52:32.150Z,23.66
2018-04-17T16:54:59.791Z,23.44
2018-04-17T16:57:27.484Z,23.39
2018-04-17T16:59:55.115Z,23.38
2018-04-17T17:02:22.771Z,23.25
2018-04-17T17:04:50.378Z,23.22
2018-04-17T17:07:18.026Z,23.09
2018-04-17T17:09:45.642Z,23.10
2018-04-17T17:12:13.300Z,23.02
2018-04-17T17:14:40.921Z,23.08
2018-04-17T17:17:08.597Z,22.90
2018-04-17T17:19:36.199Z,23.01
2018-04-17T17:22:03.863Z,23.10
2018-04-17T17:24:31.479Z,22.92
2018-04-17T17:26:59.126Z,22.84
2018-04-17T17:29:26.753Z,22.68
2018-04-17T17:31:54.400Z,22.90
2018-04-17T17:34:22.021Z,22.92
2018-04-17T17:36:49.670Z,22.82
2018-04-17T17:39:17.295Z,22.87
2018-04-17T17:41:45.011Z,22.92
2018-04-17T17:44:12.682Z,22.97
2018-04-17T17:46:40.372Z,22.87
2018-04-17T17:49:08.023Z,22.73
2018-04-17T17:51:35.719Z,22.58
2018-04-17T17:54:03.331Z,22.48
2018-04-17T17:56:31.086Z,22.32
2018-04-17T17:58:58.736Z,22.19
2018-04-17T18:01:26.432Z,22.17
2018-04-17T18:03:54.057Z,22.19
2018-04-17T18:06:21.711Z,21.86
2018-04-17T18:08:49.368Z,21.89
2018-04-17T18:11:17.021Z,21.63
2018-04-17T18:13:44.642Z,21.65
2018-04-17T18:16:12.310Z,21.39
2018-04-17T18:18:39.931Z,21.35
2018-04-17T18:21:07.651Z,21.40
2018-04-17T18:23:35.263Z,21.37
2018-04-17T18:26:02.940Z,21.29
2018-04-17T18:28:30.565Z,21.31
2018-04-17T18:30:58.234Z,21.41
2018-04-17T18:33:25.851Z,21.50
2018-04-17T18:35:53.543Z,21.45
2018-04-17T18:38:21.212Z,21.39
2018-04-17T18:40:48.840Z,21.18
2018-04-17T18:43:16.499Z,21.19
2018-04-17T18:45:44.127Z,21.11
2018-04-17T18:48:11.782Z,21.09
2018-04-17T18:50:39.400Z,21.15
2018-04-17T18:53:07.049Z,21.10
2018-04-17T18:55:34.695Z,20.78
2018-04-17T18:58:02.371Z,20.66
2018-04-17T19:00:30.010Z,20.70
2018-04-17T19:02:57.660Z,20.63
2018-04-17T19:05:25.295Z,20.54
2018-04-17T19:07:52.971Z,20.55
2018-04-17T19:10:20.602Z,20.37
2018-04-17T19:12:48.262Z,20.23
2018-04-17T19:15:15.904Z,20.25
2018-04-17T19:17:43.566Z,20.17
2018-04-17T19:20:11.202Z,20.07
2018-04-17T19:22:38.865Z,19.99
2018-04-17T19:25:06.486Z,19.98
2018-04-17T19:27:34.172Z,19.92
2018-04-17T19:30:01.803Z,19.81
2018-04-17T19:32:29.524Z,19.94
2018-04-17T19:34:57.142Z,19.99
2018-04-17T19:37:24.995Z,19.99
2018-04-17T19:39:52.611Z,19.84
2018-04-17T19:42:20.271Z,19.80
2018-04-17T19:44:47.889Z,19.63
2018-04-17T19:47:15.691Z,19.54
2018-04-17T19:49:43.508Z,19.55
2018-04-17T19:52:11.207Z,19.63
2018-04-17T19:54:38.829Z,19.66
2018-04-17T19:57:06.520Z,19.44
2018-04-17T19:59:34.157Z,19.26
2018-04-17T20:02:01.828Z,19.39
2018-04-17T20:04:29.446Z,19.40
2018-04-17T20:06:57.108Z,19.32
2018-04-17T20:09:24.878Z,19.20
2018-04-17T20:11:52.538Z,19.03
2018-04-17T20:14:20.159Z,19.02
2018-04-17T20:16:47.809Z,18.86
2018-04-17T20:19:15.468Z,18.97
2018-04-17T20:21:43.163Z,18.94
2018-04-17T20:24:10.843Z,18.94
2018-04-17T20:26:38.502Z,18.96
2018-04-17T20:29:06.126Z,18.87
2018-04-17T20:31:33.779Z,18.87
2018-04-17T20:34:01.452Z,18.66
2018-04-17T20:36:29.102Z,18.73
2018-04-17T20:38:56.779Z,18.74
2018-04-17T20:41:24.398Z,18.64
2018-04-17T20:43:52.112Z,18.77
2018-04-17T20:46:19.781Z,18.72
2018-04-17T20:48:47.478Z,18.61
2018-04-17T20:51:15.142Z,18.48
2018-04-17T20:53:42.856Z,18.50
2018-04-17T20:56:10.535Z,18.35
2018-04-17T20:58:38.240Z,18.31
2018-04-17T21:01:05.845Z,18.08
2018-04-17T21:03:33.550Z,18.00
2018-04-17T21:06:01.210Z,18.14
2018-04-17T21:08:28.918Z,17.76
2018-04-17T21:10:56.590Z,18.00
2018-04-17T21:13:24.251Z,17.81
2018-04-17T21:15:51.947Z,17.84
2018-04-17T21:18:19.631Z,17.73
2018-04-17T21:20:47.288Z,17.85
2018-04-17T21:23:15.004Z,17.78
2018-04-17T21:25:42.622Z,17.25
2018-04-17T21:28:12.383Z,17.57
2018-04-17T21:30:39.993Z,17.49
2018-04-17T21:33:07.678Z,17.53
2018-04-17T21:35:35.337Z,17.64
2018-04-17T21:38:02.998Z,17.61
2018-04-17T21:40:30.612Z,17.52
2018-04-17T21:42:58.287Z,17.41
2018-04-17T21:45:25.983Z,17.37
2018-04-17T21:47:53.640Z,17.43
2018-04-17T21:50:21.257Z,17.37
2018-04-17T21:52:48.960Z,17.36
2018-04-17T21:55:16.567Z,17.19
2018-04-17T21:57:44.217Z,17.14
2018-04-17T22:00:11.824Z,17.09
2018-04-17T22:02:39.483Z,17.08
2018-04-17T22:05:07.099Z,17.07
2018-04-17T22:07:34.758Z,17.14
2018-04-17T22:10:02.420Z,16.91
2018-04-17T22:12:30.099Z,16.95
2018-04-17T22:14:57.717Z,16.92
2018-04-17T22:17:25.364Z,16.86
2018-04-17T22:19:53.026Z,16.87
2018-04-17T22:22:20.719Z,16.49
2018-04-17T22:24:48.383Z,16.58
2018-04-17T22:27:16.036Z,16.61
2018-04-17T22:29:43.648Z,16.64
2018-04-17T22:32:11.293Z,16.56
2018-04-17T22:34:38.905Z,16.52
2018-04-17T22:37:06.612Z,16.37
2018-04-17T22:39:34.280Z,16.43
2018-04-17T22:42:02.007Z,16.38
2018-04-17T22:44:29.674Z,16.39
2018-04-17T22:46:57.362Z,16.39
2018-04-17T22:49:25.028Z,16.32
2018-04-17T22:51:52.705Z,16.28
2018-04-17T22:54:20.395Z,16.25
2018-04-17T22:56:48.827Z,16.18
2018-04-17T22:59:16.527Z,16.19
2018-04-17T23:01:44.148Z,16.14
2018-04-17T23:04:11.818Z,16.20
2018-04-17T23:06:39.435Z,16.13
2018-04-17T23:09:07.082Z,16.15
2018-04-17T23:11:34.699Z,16.03
2018-04-17T23:14:02.380Z,16.01
2018-04-17T23:16:29.990Z,16.03
2018-04-17T23:18:57.659Z,16.13
2018-04-17T23:21:25.283Z,15.94
2018-04-17T23:23:52.938Z,15.87
2018-04-17T23:26:20.567Z,15.80
2018-04-17T23:28:48.255Z,15.89
2018-04-17T23:31:15.891Z,15.90
2018-04-17T23:33:43.591Z,15.84
2018-04-17T23:36:11.257Z,15.75
2018-04-17T23:38:38.914Z,15.72
2018-04-17T23:41:06.527Z,15.56
2018-04-17T23:43:34.238Z,15.57
2018-04-17T23:46:01.860Z,15.68
2018-04-17T23:48:29.521Z,15.58
2018-04-17T23:50:57.125Z,15.63
2018-04-17T23:53:24.789Z,15.53
2018-04-17T23:55:52.416Z,15.61
2018-04-17T23:58:20.092Z,15.54
